sensor_id;sensor_type;location;lat;lon;timestamp;P1;durP1;ratioP1;P2;durP2;ratioP2
35969;SDS011;22448;51.298;6.430;2022-12-07T00:01:28;57.63;;;35.42;;
35969;SDS011;22448;51.298;6.430;2022-12-07T00:03:57;61.67;;;36.42;;
35969;SDS011;22448;51.298;6.430;2022-12-07T00:06:36;52.20;;;32.55;;
35969;SDS011;22448;51.298;6.430;2022-12-07T00:09:06;58.95;;;32.63;;
35969;SDS011;22448;51.298;6.430;2022-12-07T00:11:34;59.85;;;34.35;;
35969;SDS011;22448;51.298;6.430;2022-12-07T00:14:02;58.05;;;35.63;;
35969;SDS011;22448;51.298;6.430;2022-12-07T00:16:31;54.80;;;34.72;;
35969;SDS011;22448;51.298;6.430;2022-12-07T00:19:00;62.22;;;38.00;;
35969;SDS011;22448;51.298;6.430;2022-12-07T00:21:29;58.88;;;37.35;;
35969;SDS011;22448;51.298;6.430;2022-12-07T00:23:58;61.72;;;37.95;;
35969;SDS011;22448;51.298;6.430;2022-12-07T00:26:30;57.72;;;36.58;;
35969;SDS011;22448;51.298;6.430;2022-12-07T00:29:29;64.95;;;38.33;;
35969;SDS011;22448;51.298;6.430;2022-12-07T00:31:52;77.18;;;43.17;;
35969;SDS011;22448;51.298;6.430;2022-12-07T00:34:19;66.22;;;39.83;;
35969;SDS011;22448;51.298;6.430;2022-12-07T00:36:48;66.30;;;40.38;;
35969;SDS011;22448;51.298;6.430;2022-12-07T00:39:15;72.00;;;43.92;;
35969;SDS011;22448;51.298;6.430;2022-12-07T00:41:42;66.28;;;41.85;;
35969;SDS011;22448;51.298;6.430;2022-12-07T00:44:09;63.90;;;39.03;;
35969;SDS011;22448;51.298;6.430;2022-12-07T00:46:36;73.00;;;46.97;;
35969;SDS011;22448;51.298;6.430;2022-12-07T00:49:03;70.38;;;44.00;;
35969;SDS011;22448;51.298;6.430;2022-12-07T00:51:30;82.88;;;45.33;;
35969;SDS011;22448;51.298;6.430;2022-12-07T00:53:57;74.50;;;45.22;;
35969;SDS011;22448;51.298;6.430;2022-12-07T00:56:26;76.13;;;45.53;;
35969;SDS011;22448;51.298;6.430;2022-12-07T00:58:54;68.93;;;41.15;;
35969;SDS011;22448;51.298;6.430;2022-12-07T01:01:26;64.07;;;39.42;;
35969;SDS011;22448;51.298;6.430;2022-12-07T01:03:59;72.28;;;42.30;;
35969;SDS011;22448;51.298;6.430;2022-12-07T01:06:29;71.40;;;44.92;;
35969;SDS011;22448;51.298;6.430;2022-12-07T01:08:57;69.68;;;42.55;;
35969;SDS011;22448;51.298;6.430;2022-12-07T01:11:25;67.75;;;42.90;;
35969;SDS011;22448;51.298;6.430;2022-12-07T01:13:55;72.00;;;41.65;;
35969;SDS011;22448;51.298;6.430;2022-12-07T01:16:24;66.95;;;41.75;;
35969;SDS011;22448;51.298;6.430;2022-12-07T01:18:54;76.65;;;44.13;;
35969;SDS011;22448;51.298;6.430;2022-12-07T01:21:23;69.90;;;42.03;;
35969;SDS011;22448;51.298;6.430;2022-12-07T01:23:53;73.22;;;42.72;;
35969;SDS011;22448;51.298;6.430;2022-12-07T01:26:21;106.22;;;56.33;;
35969;SDS011;22448;51.298;6.430;2022-12-07T01:28:50;68.47;;;42.28;;
35969;SDS011;22448;51.298;6.430;2022-12-07T01:31:18;78.32;;;45.88;;
35969;SDS011;22448;51.298;6.430;2022-12-07T01:33:48;71.32;;;42.83;;
35969;SDS011;22448;51.298;6.430;2022-12-07T01:38:54;80.63;;;45.25;;
35969;SDS011;22448;51.298;6.430;2022-12-07T01:41:25;73.20;;;41.33;;
35969;SDS011;22448;51.298;6.430;2022-12-07T01:46:52;72.57;;;42.50;;
35969;SDS011;22448;51.298;6.430;2022-12-07T01:49:26;70.28;;;44.38;;
35969;SDS011;22448;51.298;6.430;2022-12-07T01:52:13;68.72;;;41.78;;
35969;SDS011;22448;51.298;6.430;2022-12-07T01:54:46;72.28;;;43.30;;
35969;SDS011;22448;51.298;6.430;2022-12-07T01:57:15;67.35;;;42.40;;
35969;SDS011;22448;51.298;6.430;2022-12-07T01:59:44;75.57;;;43.80;;
35969;SDS011;22448;51.298;6.430;2022-12-07T02:02:17;71.35;;;42.10;;
35969;SDS011;22448;51.298;6.430;2022-12-07T02:04:50;65.22;;;42.35;;
35969;SDS011;22448;51.298;6.430;2022-12-07T02:07:19;65.15;;;41.58;;
35969;SDS011;22448;51.298;6.430;2022-12-07T02:09:48;79.20;;;43.28;;
35969;SDS011;22448;51.298;6.430;2022-12-07T02:12:14;67.05;;;41.58;;
35969;SDS011;22448;51.298;6.430;2022-12-07T02:14:42;68.53;;;42.95;;
35969;SDS011;22448;51.298;6.430;2022-12-07T02:17:14;70.90;;;42.00;;
35969;SDS011;22448;51.298;6.430;2022-12-07T02:28:29;70.93;;;42.05;;
35969;SDS011;22448;51.298;6.430;2022-12-07T02:31:05;73.72;;;44.50;;
35969;SDS011;22448;51.298;6.430;2022-12-07T02:33:40;71.28;;;43.33;;
35969;SDS011;22448;51.298;6.430;2022-12-07T02:36:22;66.15;;;43.75;;
35969;SDS011;22448;51.298;6.430;2022-12-07T02:38:59;75.07;;;44.70;;
35969;SDS011;22448;51.298;6.430;2022-12-07T02:41:34;74.75;;;45.17;;
35969;SDS011;22448;51.298;6.430;2022-12-07T02:44:06;82.03;;;44.35;;
35969;SDS011;22448;51.298;6.430;2022-12-07T02:46:39;68.97;;;43.30;;
35969;SDS011;22448;51.298;6.430;2022-12-07T02:49:19;78.18;;;44.75;;
35969;SDS011;22448;51.298;6.430;2022-12-07T02:51:50;71.95;;;43.88;;
35969;SDS011;22448;51.298;6.430;2022-12-07T02:54:19;77.60;;;44.10;;
35969;SDS011;22448;51.298;6.430;2022-12-07T03:00:01;78.00;;;43.42;;
35969;SDS011;22448;51.298;6.430;2022-12-07T03:02:48;72.68;;;45.58;;
35969;SDS011;22448;51.298;6.430;2022-12-07T03:11:09;73.78;;;42.85;;
35969;SDS011;22448;51.298;6.430;2022-12-07T03:13:59;76.70;;;42.90;;
35969;SDS011;22448;51.298;6.430;2022-12-07T03:16:35;77.13;;;41.78;;
35969;SDS011;22448;51.298;6.430;2022-12-07T03:19:06;68.90;;;42.60;;
35969;SDS011;22448;51.298;6.430;2022-12-07T03:21:41;65.22;;;42.58;;
35969;SDS011;22448;51.298;6.430;2022-12-07T03:27:16;69.20;;;42.05;;
35969;SDS011;22448;51.298;6.430;2022-12-07T03:29:49;68.00;;;41.22;;
35969;SDS011;22448;51.298;6.430;2022-12-07T03:32:26;71.35;;;41.08;;
35969;SDS011;22448;51.298;6.430;2022-12-07T03:35:02;64.28;;;38.28;;
35969;SDS011;22448;51.298;6.430;2022-12-07T03:37:34;63.42;;;38.28;;
35969;SDS011;22448;51.298;6.430;2022-12-07T03:40:25;58.72;;;38.15;;
35969;SDS011;22448;51.298;6.430;2022-12-07T03:43:01;62.40;;;37.50;;
35969;SDS011;22448;51.298;6.430;2022-12-07T03:45:39;60.58;;;35.60;;
35969;SDS011;22448;51.298;6.430;2022-12-07T03:51:06;56.05;;;33.47;;
35969;SDS011;22448;51.298;6.430;2022-12-07T03:53:59;64.72;;;35.30;;
35969;SDS011;22448;51.298;6.430;2022-12-07T03:56:41;65.25;;;34.85;;
35969;SDS011;22448;51.298;6.430;2022-12-07T03:59:11;59.53;;;35.00;;
35969;SDS011;22448;51.298;6.430;2022-12-07T04:01:43;54.08;;;32.72;;
35969;SDS011;22448;51.298;6.430;2022-12-07T04:04:11;61.78;;;34.45;;
35969;SDS011;22448;51.298;6.430;2022-12-07T04:06:38;59.15;;;36.67;;
35969;SDS011;22448;51.298;6.430;2022-12-07T04:09:05;62.80;;;36.33;;
35969;SDS011;22448;51.298;6.430;2022-12-07T04:11:32;57.20;;;36.58;;
35969;SDS011;22448;51.298;6.430;2022-12-07T04:13:59;58.53;;;36.22;;
35969;SDS011;22448;51.298;6.430;2022-12-07T04:16:49;60.60;;;36.35;;
35969;SDS011;22448;51.298;6.430;2022-12-07T04:19:23;55.65;;;35.55;;
35969;SDS011;22448;51.298;6.430;2022-12-07T04:21:55;60.13;;;36.92;;
35969;SDS011;22448;51.298;6.430;2022-12-07T04:24:23;60.70;;;35.15;;
35969;SDS011;22448;51.298;6.430;2022-12-07T04:26:50;67.30;;;35.78;;
35969;SDS011;22448;51.298;6.430;2022-12-07T04:29:18;57.30;;;33.10;;
35969;SDS011;22448;51.298;6.430;2022-12-07T04:31:46;65.28;;;32.50;;
35969;SDS011;22448;51.298;6.430;2022-12-07T04:34:14;58.50;;;33.83;;
35969;SDS011;22448;51.298;6.430;2022-12-07T04:36:42;64.95;;;34.17;;
35969;SDS011;22448;51.298;6.430;2022-12-07T04:41:50;49.13;;;32.33;;
35969;SDS011;22448;51.298;6.430;2022-12-07T04:44:18;61.20;;;33.05;;
35969;SDS011;22448;51.298;6.430;2022-12-07T04:46:46;61.80;;;34.63;;
35969;SDS011;22448;51.298;6.430;2022-12-07T04:49:14;60.78;;;33.50;;
35969;SDS011;22448;51.298;6.430;2022-12-07T04:51:43;50.95;;;30.45;;
35969;SDS011;22448;51.298;6.430;2022-12-07T04:54:11;51.40;;;30.80;;
35969;SDS011;22448;51.298;6.430;2022-12-07T04:56:38;56.65;;;28.83;;
35969;SDS011;22448;51.298;6.430;2022-12-07T04:59:06;44.92;;;26.92;;
35969;SDS011;22448;51.298;6.430;2022-12-07T05:01:33;46.63;;;27.77;;
35969;SDS011;22448;51.298;6.430;2022-12-07T05:04:01;46.60;;;27.10;;
35969;SDS011;22448;51.298;6.430;2022-12-07T05:06:28;54.83;;;28.90;;
35969;SDS011;22448;51.298;6.430;2022-12-07T05:08:55;47.75;;;27.88;;
35969;SDS011;22448;51.298;6.430;2022-12-07T05:11:22;49.38;;;28.15;;
35969;SDS011;22448;51.298;6.430;2022-12-07T05:14:25;33.45;;;20.52;;
35969;SDS011;22448;51.298;6.430;2022-12-07T05:16:51;45.40;;;26.52;;
35969;SDS011;22448;51.298;6.430;2022-12-07T05:19:19;44.55;;;26.88;;
35969;SDS011;22448;51.298;6.430;2022-12-07T05:21:47;45.20;;;26.40;;
35969;SDS011;22448;51.298;6.430;2022-12-07T05:24:14;45.35;;;26.35;;
35969;SDS011;22448;51.298;6.430;2022-12-07T05:26:44;40.95;;;25.63;;
35969;SDS011;22448;51.298;6.430;2022-12-07T05:29:12;44.88;;;25.42;;
35969;SDS011;22448;51.298;6.430;2022-12-07T05:31:40;46.58;;;27.63;;
35969;SDS011;22448;51.298;6.430;2022-12-07T05:34:08;52.63;;;27.38;;
35969;SDS011;22448;51.298;6.430;2022-12-07T05:36:36;47.40;;;27.58;;
35969;SDS011;22448;51.298;6.430;2022-12-07T05:39:03;46.40;;;26.20;;
35969;SDS011;22448;51.298;6.430;2022-12-07T05:41:30;52.65;;;26.50;;
35969;SDS011;22448;51.298;6.430;2022-12-07T05:44:29;45.08;;;26.90;;
35969;SDS011;22448;51.298;6.430;2022-12-07T05:46:56;39.92;;;25.33;;
35969;SDS011;22448;51.298;6.430;2022-12-07T05:49:23;45.95;;;25.13;;
35969;SDS011;22448;51.298;6.430;2022-12-07T05:51:50;42.33;;;23.92;;
35969;SDS011;22448;51.298;6.430;2022-12-07T05:54:17;43.33;;;25.80;;
35969;SDS011;22448;51.298;6.430;2022-12-07T05:56:44;40.60;;;25.00;;
35969;SDS011;22448;51.298;6.430;2022-12-07T05:59:10;40.88;;;24.25;;
35969;SDS011;22448;51.298;6.430;2022-12-07T06:04:17;41.50;;;25.08;;
35969;SDS011;22448;51.298;6.430;2022-12-07T06:06:45;43.97;;;24.60;;
35969;SDS011;22448;51.298;6.430;2022-12-07T06:09:11;44.00;;;24.50;;
35969;SDS011;22448;51.298;6.430;2022-12-07T06:11:39;50.63;;;26.02;;
35969;SDS011;22448;51.298;6.430;2022-12-07T06:14:25;54.53;;;24.63;;
35969;SDS011;22448;51.298;6.430;2022-12-07T06:16:52;39.58;;;23.27;;
35969;SDS011;22448;51.298;6.430;2022-12-07T06:19:19;44.53;;;24.23;;
35969;SDS011;22448;51.298;6.430;2022-12-07T06:21:46;48.13;;;23.85;;
35969;SDS011;22448;51.298;6.430;2022-12-07T06:24:14;38.92;;;23.17;;
35969;SDS011;22448;51.298;6.430;2022-12-07T06:26:42;38.50;;;22.33;;
35969;SDS011;22448;51.298;6.430;2022-12-07T06:29:10;34.40;;;21.30;;
35969;SDS011;22448;51.298;6.430;2022-12-07T06:31:38;36.65;;;21.63;;
35969;SDS011;22448;51.298;6.430;2022-12-07T06:34:06;46.72;;;23.00;;
35969;SDS011;22448;51.298;6.430;2022-12-07T06:36:36;39.28;;;20.75;;
35969;SDS011;22448;51.298;6.430;2022-12-07T06:39:04;37.92;;;21.15;;
35969;SDS011;22448;51.298;6.430;2022-12-07T06:41:31;38.22;;;20.73;;
35969;SDS011;22448;51.298;6.430;2022-12-07T06:43:58;37.13;;;18.95;;
35969;SDS011;22448;51.298;6.430;2022-12-07T06:46:25;39.53;;;17.55;;
35969;SDS011;22448;51.298;6.430;2022-12-07T06:48:52;37.75;;;17.60;;
35969;SDS011;22448;51.298;6.430;2022-12-07T06:51:19;31.25;;;17.50;;
35969;SDS011;22448;51.298;6.430;2022-12-07T06:53:46;33.33;;;16.23;;
35969;SDS011;22448;51.298;6.430;2022-12-07T06:56:14;31.27;;;16.08;;
35969;SDS011;22448;51.298;6.430;2022-12-07T06:58:41;29.23;;;17.05;;
35969;SDS011;22448;51.298;6.430;2022-12-07T07:01:09;31.95;;;17.60;;
35969;SDS011;22448;51.298;6.430;2022-12-07T07:03:37;29.33;;;16.23;;
35969;SDS011;22448;51.298;6.430;2022-12-07T07:06:05;33.20;;;17.40;;
35969;SDS011;22448;51.298;6.430;2022-12-07T07:08:34;27.30;;;17.35;;
35969;SDS011;22448;51.298;6.430;2022-12-07T07:11:02;33.33;;;17.58;;
35969;SDS011;22448;51.298;6.430;2022-12-07T07:13:29;35.53;;;18.63;;
35969;SDS011;22448;51.298;6.430;2022-12-07T07:15:56;35.38;;;17.80;;
35969;SDS011;22448;51.298;6.430;2022-12-07T07:18:24;36.83;;;17.02;;
35969;SDS011;22448;51.298;6.430;2022-12-07T07:20:52;27.35;;;16.58;;
35969;SDS011;22448;51.298;6.430;2022-12-07T07:23:19;31.02;;;16.48;;
35969;SDS011;22448;51.298;6.430;2022-12-07T07:25:47;32.58;;;16.88;;
35969;SDS011;22448;51.298;6.430;2022-12-07T07:28:14;31.73;;;17.50;;
35969;SDS011;22448;51.298;6.430;2022-12-07T07:30:41;33.50;;;17.20;;
35969;SDS011;22448;51.298;6.430;2022-12-07T07:33:09;34.65;;;18.42;;
35969;SDS011;22448;51.298;6.430;2022-12-07T07:35:36;30.27;;;17.58;;
35969;SDS011;22448;51.298;6.430;2022-12-07T07:38:03;37.33;;;18.58;;
35969;SDS011;22448;51.298;6.430;2022-12-07T07:40:30;28.27;;;18.10;;
35969;SDS011;22448;51.298;6.430;2022-12-07T07:42:57;33.33;;;19.77;;
35969;SDS011;22448;51.298;6.430;2022-12-07T07:45:24;36.55;;;19.73;;
35969;SDS011;22448;51.298;6.430;2022-12-07T07:47:52;43.70;;;20.48;;
35969;SDS011;22448;51.298;6.430;2022-12-07T07:50:21;35.25;;;20.40;;
35969;SDS011;22448;51.298;6.430;2022-12-07T07:52:48;34.85;;;19.90;;
35969;SDS011;22448;51.298;6.430;2022-12-07T07:55:15;42.53;;;20.23;;
35969;SDS011;22448;51.298;6.430;2022-12-07T07:57:42;38.53;;;20.08;;
35969;SDS011;22448;51.298;6.430;2022-12-07T08:00:15;40.72;;;21.67;;
35969;SDS011;22448;51.298;6.430;2022-12-07T08:02:43;33.17;;;21.58;;
35969;SDS011;22448;51.298;6.430;2022-12-07T08:05:10;49.70;;;22.58;;
35969;SDS011;22448;51.298;6.430;2022-12-07T08:07:38;42.10;;;22.63;;
35969;SDS011;22448;51.298;6.430;2022-12-07T08:10:06;49.40;;;23.35;;
35969;SDS011;22448;51.298;6.430;2022-12-07T08:12:37;38.88;;;23.30;;
35969;SDS011;22448;51.298;6.430;2022-12-07T08:15:25;48.78;;;23.50;;
35969;SDS011;22448;51.298;6.430;2022-12-07T08:17:53;39.90;;;22.60;;
35969;SDS011;22448;51.298;6.430;2022-12-07T08:20:20;40.47;;;22.95;;
35969;SDS011;22448;51.298;6.430;2022-12-07T08:22:47;40.72;;;21.90;;
35969;SDS011;22448;51.298;6.430;2022-12-07T08:25:14;36.97;;;22.10;;
35969;SDS011;22448;51.298;6.430;2022-12-07T08:27:41;37.05;;;21.48;;
35969;SDS011;22448;51.298;6.430;2022-12-07T08:30:08;36.00;;;21.80;;
35969;SDS011;22448;51.298;6.430;2022-12-07T08:32:35;39.92;;;22.42;;
35969;SDS011;22448;51.298;6.430;2022-12-07T08:35:02;43.53;;;23.02;;
35969;SDS011;22448;51.298;6.430;2022-12-07T08:37:29;41.63;;;22.80;;
35969;SDS011;22448;51.298;6.430;2022-12-07T08:39:57;38.75;;;22.88;;
35969;SDS011;22448;51.298;6.430;2022-12-07T08:42:25;42.05;;;20.17;;
35969;SDS011;22448;51.298;6.430;2022-12-07T08:44:56;43.63;;;21.45;;
35969;SDS011;22448;51.298;6.430;2022-12-07T08:47:24;38.65;;;21.13;;
35969;SDS011;22448;51.298;6.430;2022-12-07T08:49:51;34.53;;;20.58;;
35969;SDS011;22448;51.298;6.430;2022-12-07T08:52:19;41.97;;;20.45;;
35969;SDS011;22448;51.298;6.430;2022-12-07T08:54:46;40.03;;;20.92;;
35969;SDS011;22448;51.298;6.430;2022-12-07T08:57:14;44.78;;;22.40;;
35969;SDS011;22448;51.298;6.430;2022-12-07T08:59:41;41.53;;;25.48;;
35969;SDS011;22448;51.298;6.430;2022-12-07T09:02:08;47.25;;;25.88;;
35969;SDS011;22448;51.298;6.430;2022-12-07T09:04:35;38.55;;;23.50;;
35969;SDS011;22448;51.298;6.430;2022-12-07T09:07:02;30.67;;;21.00;;
35969;SDS011;22448;51.298;6.430;2022-12-07T09:09:30;30.08;;;18.83;;
35969;SDS011;22448;51.298;6.430;2022-12-07T09:11:57;32.15;;;16.25;;
35969;SDS011;22448;51.298;6.430;2022-12-07T09:14:24;32.90;;;15.77;;
35969;SDS011;22448;51.298;6.430;2022-12-07T09:16:51;24.55;;;13.85;;
35969;SDS011;22448;51.298;6.430;2022-12-07T09:19:18;23.77;;;12.07;;
35969;SDS011;22448;51.298;6.430;2022-12-07T09:21:45;18.08;;;11.77;;
35969;SDS011;22448;51.298;6.430;2022-12-07T09:24:12;26.48;;;12.73;;
35969;SDS011;22448;51.298;6.430;2022-12-07T09:26:39;41.45;;;15.80;;
35969;SDS011;22448;51.298;6.430;2022-12-07T09:29:06;25.67;;;12.52;;
35969;SDS011;22448;51.298;6.430;2022-12-07T09:31:35;31.30;;;11.95;;
35969;SDS011;22448;51.298;6.430;2022-12-07T09:34:04;19.55;;;12.30;;
35969;SDS011;22448;51.298;6.430;2022-12-07T09:36:32;20.90;;;10.65;;
35969;SDS011;22448;51.298;6.430;2022-12-07T09:39:00;20.30;;;10.57;;
35969;SDS011;22448;51.298;6.430;2022-12-07T09:41:27;17.85;;;9.82;;
35969;SDS011;22448;51.298;6.430;2022-12-07T09:44:18;25.30;;;11.13;;
35969;SDS011;22448;51.298;6.430;2022-12-07T09:46:46;23.77;;;11.35;;
35969;SDS011;22448;51.298;6.430;2022-12-07T09:49:18;23.40;;;11.60;;
35969;SDS011;22448;51.298;6.430;2022-12-07T09:54:14;28.30;;;16.90;;
35969;SDS011;22448;51.298;6.430;2022-12-07T09:56:43;36.63;;;16.70;;
35969;SDS011;22448;51.298;6.430;2022-12-07T09:59:16;28.40;;;13.73;;
35969;SDS011;22448;51.298;6.430;2022-12-07T10:01:46;21.40;;;13.18;;
35969;SDS011;22448;51.298;6.430;2022-12-07T10:04:17;34.22;;;20.13;;
35969;SDS011;22448;51.298;6.430;2022-12-07T10:06:50;23.63;;;12.98;;
35969;SDS011;22448;51.298;6.430;2022-12-07T10:09:19;25.90;;;12.88;;
35969;SDS011;22448;51.298;6.430;2022-12-07T10:12:06;26.77;;;13.30;;
35969;SDS011;22448;51.298;6.430;2022-12-07T10:14:37;20.48;;;13.15;;
35969;SDS011;22448;51.298;6.430;2022-12-07T10:17:34;28.38;;;13.05;;
35969;SDS011;22448;51.298;6.430;2022-12-07T10:22:53;27.98;;;15.50;;
35969;SDS011;22448;51.298;6.430;2022-12-07T10:25:22;30.17;;;14.35;;
35969;SDS011;22448;51.298;6.430;2022-12-07T10:27:57;23.02;;;12.15;;
35969;SDS011;22448;51.298;6.430;2022-12-07T10:30:29;23.27;;;11.95;;
35969;SDS011;22448;51.298;6.430;2022-12-07T10:32:57;25.02;;;11.98;;
35969;SDS011;22448;51.298;6.430;2022-12-07T10:35:26;20.92;;;11.23;;
35969;SDS011;22448;51.298;6.430;2022-12-07T10:37:56;34.15;;;15.48;;
35969;SDS011;22448;51.298;6.430;2022-12-07T10:43:01;30.08;;;13.55;;
35969;SDS011;22448;51.298;6.430;2022-12-07T11:00:23;26.70;;;10.82;;
35969;SDS011;22448;51.298;6.430;2022-12-07T11:02:59;24.92;;;10.27;;
35969;SDS011;22448;51.298;6.430;2022-12-07T11:11:06;22.75;;;11.63;;
35969;SDS011;22448;51.298;6.430;2022-12-07T11:16:30;23.85;;;11.45;;
35969;SDS011;22448;51.298;6.430;2022-12-07T11:19:29;27.20;;;13.40;;
35969;SDS011;22448;51.298;6.430;2022-12-07T11:22:13;77.97;;;29.23;;
35969;SDS011;22448;51.298;6.430;2022-12-07T11:24:49;30.38;;;13.95;;
35969;SDS011;22448;51.298;6.430;2022-12-07T11:27:41;28.92;;;12.57;;
35969;SDS011;22448;51.298;6.430;2022-12-07T11:30:58;24.83;;;11.40;;
35969;SDS011;22448;51.298;6.430;2022-12-07T11:34:07;27.05;;;10.20;;
35969;SDS011;22448;51.298;6.430;2022-12-07T11:36:45;20.45;;;9.65;;
35969;SDS011;22448;51.298;6.430;2022-12-07T11:41:45;19.08;;;10.75;;
35969;SDS011;22448;51.298;6.430;2022-12-07T11:47:02;22.20;;;11.15;;
35969;SDS011;22448;51.298;6.430;2022-12-07T11:55:29;24.42;;;10.57;;
35969;SDS011;22448;51.298;6.430;2022-12-07T12:03:50;20.63;;;9.43;;
35969;SDS011;22448;51.298;6.430;2022-12-07T12:06:24;24.92;;;10.50;;
35969;SDS011;22448;51.298;6.430;2022-12-07T12:25:48;22.80;;;8.00;;
35969;SDS011;22448;51.298;6.430;2022-12-07T12:33:47;19.15;;;6.53;;
35969;SDS011;22448;51.298;6.430;2022-12-07T12:51:49;13.45;;;4.38;;
35969;SDS011;22448;51.298;6.430;2022-12-07T13:01:50;10.20;;;3.72;;
35969;SDS011;22448;51.298;6.430;2022-12-07T13:04:48;12.98;;;3.97;;
35969;SDS011;22448;51.298;6.430;2022-12-07T13:18:35;12.27;;;4.10;;
35969;SDS011;22448;51.298;6.430;2022-12-07T13:29:04;19.00;;;4.30;;
35969;SDS011;22448;51.298;6.430;2022-12-07T13:37:01;18.25;;;4.53;;
35969;SDS011;22448;51.298;6.430;2022-12-07T13:39:49;13.85;;;4.00;;
35969;SDS011;22448;51.298;6.430;2022-12-07T13:42:28;10.20;;;3.85;;
35969;SDS011;22448;51.298;6.430;2022-12-07T13:45:13;12.82;;;3.97;;
35969;SDS011;22448;51.298;6.430;2022-12-07T13:47:57;12.48;;;3.92;;
35969;SDS011;22448;51.298;6.430;2022-12-07T13:50:27;15.82;;;4.07;;
35969;SDS011;22448;51.298;6.430;2022-12-07T13:52:56;20.75;;;4.60;;
35969;SDS011;22448;51.298;6.430;2022-12-07T13:55:24;14.15;;;4.20;;
35969;SDS011;22448;51.298;6.430;2022-12-07T13:57:53;18.02;;;4.50;;
35969;SDS011;22448;51.298;6.430;2022-12-07T14:00:25;15.15;;;4.75;;
35969;SDS011;22448;51.298;6.430;2022-12-07T14:02:58;14.25;;;4.65;;
35969;SDS011;22448;51.298;6.430;2022-12-07T14:05:26;25.75;;;5.97;;
35969;SDS011;22448;51.298;6.430;2022-12-07T14:07:56;21.10;;;7.18;;
35969;SDS011;22448;51.298;6.430;2022-12-07T14:13:34;19.52;;;5.93;;
35969;SDS011;22448;51.298;6.430;2022-12-07T14:16:18;16.17;;;4.45;;
35969;SDS011;22448;51.298;6.430;2022-12-07T14:18:50;13.32;;;5.30;;
35969;SDS011;22448;51.298;6.430;2022-12-07T14:21:19;16.73;;;5.18;;
35969;SDS011;22448;51.298;6.430;2022-12-07T14:26:41;11.43;;;4.05;;
35969;SDS011;22448;51.298;6.430;2022-12-07T14:29:22;12.95;;;4.53;;
35969;SDS011;22448;51.298;6.430;2022-12-07T14:31:57;12.30;;;4.15;;
35969;SDS011;22448;51.298;6.430;2022-12-07T14:34:52;12.50;;;3.90;;
35969;SDS011;22448;51.298;6.430;2022-12-07T14:37:20;13.07;;;4.40;;
35969;SDS011;22448;51.298;6.430;2022-12-07T14:39:47;10.48;;;3.70;;
35969;SDS011;22448;51.298;6.430;2022-12-07T14:42:14;15.60;;;5.38;;
35969;SDS011;22448;51.298;6.430;2022-12-07T14:44:41;10.43;;;4.43;;
35969;SDS011;22448;51.298;6.430;2022-12-07T14:47:11;14.07;;;4.28;;
35969;SDS011;22448;51.298;6.430;2022-12-07T14:49:58;14.25;;;4.90;;
35969;SDS011;22448;51.298;6.430;2022-12-07T14:55:20;7.90;;;3.88;;
35969;SDS011;22448;51.298;6.430;2022-12-07T14:57:54;17.88;;;5.30;;
35969;SDS011;22448;51.298;6.430;2022-12-07T15:00:22;12.75;;;4.03;;
35969;SDS011;22448;51.298;6.430;2022-12-07T15:02:51;17.92;;;4.90;;
35969;SDS011;22448;51.298;6.430;2022-12-07T15:05:18;17.65;;;4.50;;
35969;SDS011;22448;51.298;6.430;2022-12-07T15:07:45;12.80;;;4.30;;
35969;SDS011;22448;51.298;6.430;2022-12-07T15:10:17;13.75;;;4.68;;
35969;SDS011;22448;51.298;6.430;2022-12-07T15:13:01;11.32;;;4.25;;
35969;SDS011;22448;51.298;6.430;2022-12-07T15:15:48;26.27;;;5.20;;
35969;SDS011;22448;51.298;6.430;2022-12-07T15:18:17;14.45;;;4.63;;
35969;SDS011;22448;51.298;6.430;2022-12-07T15:20:45;18.90;;;5.45;;
35969;SDS011;22448;51.298;6.430;2022-12-07T15:23:12;15.63;;;4.97;;
35969;SDS011;22448;51.298;6.430;2022-12-07T15:25:43;18.98;;;4.03;;
35969;SDS011;22448;51.298;6.430;2022-12-07T15:28:11;11.07;;;4.38;;
35969;SDS011;22448;51.298;6.430;2022-12-07T15:30:39;15.43;;;4.03;;
35969;SDS011;22448;51.298;6.430;2022-12-07T15:33:09;12.10;;;4.30;;
35969;SDS011;22448;51.298;6.430;2022-12-07T15:35:43;15.57;;;4.50;;
35969;SDS011;22448;51.298;6.430;2022-12-07T15:38:11;74.70;;;30.38;;
35969;SDS011;22448;51.298;6.430;2022-12-07T15:40:38;26.92;;;12.60;;
35969;SDS011;22448;51.298;6.430;2022-12-07T15:43:05;21.95;;;7.05;;
35969;SDS011;22448;51.298;6.430;2022-12-07T15:45:55;19.63;;;6.50;;
35969;SDS011;22448;51.298;6.430;2022-12-07T15:48:22;20.73;;;7.20;;
35969;SDS011;22448;51.298;6.430;2022-12-07T15:51:01;20.30;;;7.18;;
35969;SDS011;22448;51.298;6.430;2022-12-07T15:53:32;14.30;;;6.97;;
35969;SDS011;22448;51.298;6.430;2022-12-07T15:56:00;15.27;;;6.20;;
35969;SDS011;22448;51.298;6.430;2022-12-07T15:58:27;18.23;;;5.97;;
35969;SDS011;22448;51.298;6.430;2022-12-07T16:00:54;13.85;;;5.65;;
35969;SDS011;22448;51.298;6.430;2022-12-07T16:03:20;21.90;;;7.03;;
35969;SDS011;22448;51.298;6.430;2022-12-07T16:05:51;15.57;;;6.32;;
35969;SDS011;22448;51.298;6.430;2022-12-07T16:08:18;17.08;;;6.25;;
35969;SDS011;22448;51.298;6.430;2022-12-07T16:10:46;16.80;;;7.82;;
35969;SDS011;22448;51.298;6.430;2022-12-07T16:13:12;26.75;;;12.07;;
35969;SDS011;22448;51.298;6.430;2022-12-07T16:15:40;20.45;;;8.95;;
35969;SDS011;22448;51.298;6.430;2022-12-07T16:18:07;19.08;;;8.85;;
35969;SDS011;22448;51.298;6.430;2022-12-07T16:20:35;20.67;;;8.63;;
35969;SDS011;22448;51.298;6.430;2022-12-07T16:23:01;28.13;;;13.18;;
35969;SDS011;22448;51.298;6.430;2022-12-07T16:25:28;51.05;;;22.13;;
35969;SDS011;22448;51.298;6.430;2022-12-07T16:27:55;58.13;;;25.15;;
35969;SDS011;22448;51.298;6.430;2022-12-07T16:30:22;58.78;;;28.63;;
35969;SDS011;22448;51.298;6.430;2022-12-07T16:32:49;39.35;;;19.42;;
35969;SDS011;22448;51.298;6.430;2022-12-07T16:35:16;27.27;;;12.05;;
35969;SDS011;22448;51.298;6.430;2022-12-07T16:37:43;20.20;;;10.13;;
35969;SDS011;22448;51.298;6.430;2022-12-07T16:40:10;16.58;;;8.75;;
35969;SDS011;22448;51.298;6.430;2022-12-07T16:42:37;20.83;;;9.93;;
35969;SDS011;22448;51.298;6.430;2022-12-07T16:45:04;21.58;;;11.75;;
35969;SDS011;22448;51.298;6.430;2022-12-07T16:47:32;25.55;;;12.75;;
35969;SDS011;22448;51.298;6.430;2022-12-07T16:49:58;23.67;;;11.43;;
35969;SDS011;22448;51.298;6.430;2022-12-07T16:52:25;19.35;;;10.32;;
35969;SDS011;22448;51.298;6.430;2022-12-07T16:54:52;21.70;;;10.50;;
35969;SDS011;22448;51.298;6.430;2022-12-07T16:57:18;15.05;;;8.18;;
35969;SDS011;22448;51.298;6.430;2022-12-07T16:59:49;14.98;;;8.68;;
35969;SDS011;22448;51.298;6.430;2022-12-07T17:02:17;17.77;;;7.68;;
35969;SDS011;22448;51.298;6.430;2022-12-07T17:04:44;12.82;;;7.20;;
35969;SDS011;22448;51.298;6.430;2022-12-07T17:07:10;14.43;;;8.85;;
35969;SDS011;22448;51.298;6.430;2022-12-07T17:09:39;19.25;;;8.80;;
35969;SDS011;22448;51.298;6.430;2022-12-07T17:12:05;34.05;;;18.90;;
35969;SDS011;22448;51.298;6.430;2022-12-07T17:14:32;25.45;;;15.65;;
35969;SDS011;22448;51.298;6.430;2022-12-07T17:17:21;22.73;;;14.73;;
35969;SDS011;22448;51.298;6.430;2022-12-07T17:19:47;20.70;;;11.63;;
35969;SDS011;22448;51.298;6.430;2022-12-07T17:22:14;23.17;;;10.07;;
35969;SDS011;22448;51.298;6.430;2022-12-07T17:24:41;17.90;;;10.27;;
35969;SDS011;22448;51.298;6.430;2022-12-07T17:27:08;14.95;;;9.93;;